Terminal Aerodrome Forecast
Issued by NWS North Platte, NE

Home | Current Version | Previous Version | Graphics & Text | Print | Product List | Glossary On
Versions: 1 2 3 4 5 6 7 8 9 10 11 12 13
000
FTUS43 KLBF 020520
TAFVTN
TAF
KVTN 020520Z 0206/0306 VRB06KT P6SM SKC
     FM021500 28010KT P6SM SCT250
     FM022000 30009KT P6SM BKN070 PROB30 0221/0303 -TSRA BKN050CB=

USA.gov is the U.S. government's official web portal to all federal, state and local government web resources and services.